Time;durP1;ratioP1;P1;durP2;ratioP2;P2;SDS_P1;SDS_P2;PMS_P1;PMS_P2;Temp;Humidity;BMP_temperature;BMP_pressure;BME280_temperature;BME280_humidity;BME280_pressure;Samples;Min_cycle;Max_cycle;Signal;HPM_P1;HPM_P2
2023/04/07 00:02:00;;;;;;;7.60;5.08;;;;;;;6.85;88.23;100260.72;1649380;86;21520;-61
2023/04/07 00:04:30;;;;;;;8.23;4.97;;;;;;;6.82;87.90;100267.03;1649446;87;21588;-61
2023/04/07 00:06:59;;;;;;;6.95;4.97;;;;;;;6.77;87.69;100266.71;1649445;87;21103;-60
2023/04/07 00:09:29;;;;;;;7.53;4.70;;;;;;;6.74;86.99;100270.64;1649267;87;21126;-60
2023/04/07 00:12:00;;;;;;;6.53;4.50;;;;;;;6.71;86.89;100270.14;1649157;87;21107;-60
2023/04/07 00:14:30;;;;;;;9.53;5.50;;;;;;;6.68;86.21;100263.17;1649388;86;21147;-59
2023/04/07 00:17:01;;;;;;;9.28;5.75;;;;;;;6.64;85.79;100259.95;1649404;87;21373;-63
2023/04/07 00:19:32;;;;;;;10.68;5.92;;;;;;;6.62;85.77;100262.00;1649062;87;21123;-60
2023/04/07 00:22:02;;;;;;;10.08;6.40;;;;;;;6.62;85.55;100270.68;1649155;87;21142;-62
2023/04/07 00:24:34;;;;;;;9.68;5.47;;;;;;;6.62;85.66;100263.87;1651591;85;21707;-60
2023/04/07 00:27:03;;;;;;;8.78;5.62;;;;;;;6.62;85.27;100263.36;1677875;85;21071;-60
2023/04/07 00:29:33;;;;;;;8.00;5.80;;;;;;;6.59;84.77;100265.08;1677815;85;21119;-60
2023/04/07 00:32:05;;;;;;;9.10;6.20;;;;;;;6.57;84.30;100273.93;1677407;85;21492;-61
2023/04/07 00:34:34;;;;;;;10.55;7.35;;;;;;;6.53;84.33;100271.73;1677954;85;21067;-61
2023/04/07 00:37:05;;;;;;;8.78;6.35;;;;;;;6.50;84.27;100274.29;1678189;85;21483;-60
2023/04/07 00:39:35;;;;;;;9.23;6.22;;;;;;;6.49;84.17;100274.44;1678005;85;21119;-60
2023/04/07 00:42:06;;;;;;;10.03;6.17;;;;;;;6.47;84.56;100274.61;1690671;83;21001;-62
2023/04/07 00:44:35;;;;;;;9.85;7.10;;;;;;;6.48;84.75;100276.30;1731304;83;21077;-60
2023/04/07 00:47:04;;;;;;;9.65;7.50;;;;;;;6.48;84.95;100279.03;1732467;82;21073;-60
2023/04/07 00:49:34;;;;;;;11.57;7.55;;;;;;;6.45;84.94;100273.08;1738480;82;21022;-61
2023/04/07 00:52:04;;;;;;;10.50;6.97;;;;;;;6.43;85.15;100273.26;1718203;82;21041;-61
2023/04/07 00:54:35;;;;;;;10.55;7.15;;;;;;;6.43;85.50;100280.06;1738473;82;21077;-59
2023/04/07 00:57:05;;;;;;;10.72;7.00;;;;;;;6.42;85.60;100272.92;1738456;82;22262;-60
2023/04/07 00:59:35;;;;;;;11.35;7.15;;;;;;;6.42;85.82;100284.32;1718362;82;21510;-60
2023/04/07 01:02:19;;;;;;;11.20;7.70;;;;;;;6.42;86.31;100284.32;1738600;82;21013;-61
2023/04/07 01:05:27;;;;;;;12.88;8.30;;;;;;;6.45;86.57;100290.77;1738632;82;21037;-61
2023/04/07 01:08:20;;;;;;;8.18;5.75;;;;;;;6.42;86.62;100289.25;1738657;82;21048;-61
2023/04/07 01:11:09;;;;;;;9.83;5.50;;;;;;;6.43;86.47;100297.75;1738593;82;21507;-61
2023/04/07 01:13:49;;;;;;;8.75;5.70;;;;;;;6.41;86.19;100298.44;1717881;82;21498;-60
2023/04/07 01:16:30;;;;;;;10.90;5.97;;;;;;;6.37;85.72;100310.69;1747636;82;21064;-61
2023/04/07 01:19:39;;;;;;;7.70;5.40;;;;;;;6.34;85.54;100315.13;1749250;82;21613;-60
2023/04/07 01:22:17;;;;;;;6.37;4.87;;;;;;;6.32;85.43;100309.84;1749003;82;21017;-61
2023/04/07 01:25:27;;;;;;;5.40;3.72;;;;;;;6.29;84.40;100316.15;1749126;82;21469;-60
2023/04/07 01:28:02;;;;;;;5.53;4.10;;;;;;;6.24;83.82;100313.94;1749379;82;21032;-60
2023/04/07 01:30:34;;;;;;;7.70;3.77;;;;;;;6.22;83.76;100324.66;1749339;82;21058;-60
2023/04/07 01:33:03;;;;;;;3.80;2.98;;;;;;;6.16;83.33;100324.83;1717891;82;21099;-60
2023/04/07 01:35:35;;;;;;;4.95;3.30;;;;;;;6.13;83.23;100322.97;1738519;82;21587;-61
2023/04/07 01:38:04;;;;;;;3.62;2.72;;;;;;;6.13;83.20;100325.17;1738526;82;20989;-59
2023/04/07 01:40:34;;;;;;;4.03;2.77;;;;;;;6.14;82.68;100321.95;1738476;82;21053;-60
2023/04/07 01:43:04;;;;;;;2.80;2.05;;;;;;;6.14;82.58;100326.02;1738624;82;21013;-60
2023/04/07 01:45:35;;;;;;;2.33;2.10;;;;;;;6.13;82.35;100327.05;1738839;82;21060;-61
2023/04/07 01:48:07;;;;;;;3.55;2.58;;;;;;;6.13;81.75;100331.13;1735278;82;21036;-60
2023/04/07 01:50:37;;;;;;;2.77;2.10;;;;;;;6.10;81.60;100334.19;1731216;82;21083;-59
2023/04/07 01:53:06;;;;;;;2.55;2.20;;;;;;;6.09;81.00;100329.77;1731167;82;21022;-60
2023/04/07 01:55:36;;;;;;;2.90;2.12;;;;;;;6.06;80.95;100333.67;1731296;82;21061;-59
2023/04/07 01:58:10;;;;;;;2.33;1.82;;;;;;;6.06;80.74;100333.67;1731374;83;21045;-61
2023/04/07 02:00:43;;;;;;;2.08;1.70;;;;;;;6.04;79.79;100337.93;1731383;83;21017;-61
2023/04/07 02:03:23;;;;;;;2.05;1.85;;;;;;;6.02;79.24;100345.91;1731945;82;21022;-60
2023/04/07 02:05:56;;;;;;;1.95;1.65;;;;;;;6.00;79.14;100343.37;1735344;82;21089;-59
2023/04/07 02:08:27;;;;;;;2.80;1.90;;;;;;;6.00;79.25;100348.80;1625631;87;21075;-59
2023/04/07 02:10:59;;;;;;;3.15;1.95;;;;;;;6.02;79.60;100345.91;1625322;88;21399;-60
2023/04/07 02:13:30;;;;;;;2.35;1.98;;;;;;;6.02;79.53;100350.00;1633864;88;21150;-60
2023/04/07 02:16:01;;;;;;;2.20;1.77;;;;;;;6.03;79.64;100353.91;1610952;88;21520;-60
2023/04/07 02:18:33;;;;;;;2.02;1.72;;;;;;;6.02;79.03;100353.56;1632196;88;21596;-58
2023/04/07 02:21:02;;;;;;;1.98;1.77;;;;;;;5.99;78.84;100356.63;1624927;88;21119;-60
2023/04/07 02:23:33;;;;;;;2.22;2.00;;;;;;;5.99;79.31;100352.55;1622809;88;21111;-60
2023/04/07 02:26:04;;;;;;;2.02;1.70;;;;;;;5.99;78.94;100350.34;1633205;83;21454;-61
2023/04/07 02:28:33;;;;;;;2.55;1.85;;;;;;;5.96;79.04;100352.03;1731458;82;21153;-60
2023/04/07 02:31:01;;;;;;;1.67;1.57;;;;;;;5.96;79.12;100354.25;1731177;82;21021;-59
2023/04/07 02:33:33;;;;;;;1.77;1.62;;;;;;;5.97;79.31;100351.87;1731208;83;21021;-60
2023/04/07 02:36:03;;;;;;;2.20;1.50;;;;;;;5.96;78.77;100349.31;1731499;82;20995;-60
2023/04/07 02:38:32;;;;;;;2.20;1.70;;;;;;;5.95;78.54;100352.55;1731350;83;21105;-59
2023/04/07 02:41:02;;;;;;;2.77;2.08;;;;;;;5.94;78.17;100357.64;1731216;82;21017;-60
2023/04/07 02:43:31;;;;;;;2.42;1.87;;;;;;;5.92;78.21;100356.96;1731284;83;21021;-59
2023/04/07 02:46:01;;;;;;;1.90;1.70;;;;;;;5.91;78.12;100364.78;1731585;83;21035;-59
2023/04/07 02:48:32;;;;;;;2.52;1.80;;;;;;;5.88;77.79;100360.16;1735020;82;21022;-59
2023/04/07 02:51:01;;;;;;;3.58;1.70;;;;;;;5.87;78.25;100363.89;1738231;82;21025;-60
2023/04/07 02:53:32;;;;;;;3.45;1.95;;;;;;;5.88;78.37;100363.72;1663713;85;21585;-60
2023/04/07 02:56:01;;;;;;;2.10;1.70;;;;;;;5.90;78.40;100371.75;1641693;86;21120;-60
2023/04/07 02:58:30;;;;;;;2.52;1.92;;;;;;;5.91;78.73;100378.88;1663957;86;21039;-60
2023/04/07 03:01:00;;;;;;;2.25;1.80;;;;;;;5.93;78.92;100377.70;1663595;86;21098;-59
2023/04/07 03:03:32;;;;;;;3.22;2.30;;;;;;;5.93;78.91;100380.92;1663837;86;21083;-59
2023/04/07 03:06:09;;;;;;;2.25;2.00;;;;;;;5.93;79.25;100385.86;1663073;86;21051;-59
2023/04/07 03:08:41;;;;;;;2.77;2.30;;;;;;;5.94;79.59;100384.84;1663175;86;21119;-59
2023/04/07 03:11:12;;;;;;;3.00;2.17;;;;;;;5.93;79.53;100384.50;1685536;82;21469;-59
2023/04/07 03:13:41;;;;;;;2.92;2.30;;;;;;;5.90;79.85;100388.91;1738553;82;21072;-59
2023/04/07 03:16:12;;;;;;;3.62;2.10;;;;;;;5.90;80.00;100389.42;1738459;82;20994;-61
2023/04/07 03:18:45;;;;;;;3.17;2.50;;;;;;;5.88;79.94;100397.71;1737976;82;21076;-61
2023/04/07 03:21:14;;;;;;;3.75;2.30;;;;;;;5.83;80.06;100394.61;1738780;82;21009;-60
2023/04/07 03:23:45;;;;;;;3.62;2.20;;;;;;;5.80;80.26;100401.74;1738517;82;20990;-59
2023/04/07 03:26:16;;;;;;;2.83;2.20;;;;;;;5.78;80.44;100402.93;1738494;82;21028;-60
2023/04/07 03:28:45;;;;;;;3.33;2.10;;;;;;;5.75;80.44;100404.11;1738437;82;21442;-59
2023/04/07 03:31:15;;;;;;;2.65;2.00;;;;;;;5.72;80.51;100413.45;1738632;82;21053;-60
2023/04/07 03:33:45;;;;;;;2.40;2.15;;;;;;;5.72;80.77;100413.96;1738148;82;21065;-60
2023/04/07 03:36:17;;;;;;;3.95;2.27;;;;;;;5.72;80.75;100415.32;1738475;82;21018;-58
2023/04/07 03:38:47;;;;;;;3.00;2.20;;;;;;;5.70;80.62;100420.07;1738673;82;21045;-59
2023/04/07 03:41:16;;;;;;;2.72;2.02;;;;;;;5.67;80.29;100427.20;1738509;82;21061;-59
2023/04/07 03:43:46;;;;;;;2.58;2.10;;;;;;;5.64;80.29;100424.30;1738604;82;21445;-60
2023/04/07 03:46:15;;;;;;;2.12;1.87;;;;;;;5.60;80.10;100432.45;1738196;82;21017;-60
2023/04/07 03:48:46;;;;;;;4.50;2.50;;;;;;;5.54;79.67;100433.10;1737106;82;21466;-60
2023/04/07 03:51:16;;;;;;;3.60;2.70;;;;;;;5.49;79.80;100430.53;1736231;83;21053;-61
2023/04/07 03:53:47;;;;;;;3.60;2.58;;;;;;;5.51;80.21;100439.38;1736143;82;21025;-60
2023/04/07 03:56:23;;;;;;;4.10;2.90;;;;;;;5.49;80.24;100440.05;1734866;82;21030;-60
2023/04/07 03:58:56;;;;;;;3.62;2.52;;;;;;;5.49;80.17;100445.48;1736211;82;21418;-59
2023/04/07 04:01:28;;;;;;;4.53;3.65;;;;;;;5.48;80.24;100453.30;1735975;83;21434;-62
2023/04/07 04:03:57;;;;;;;3.50;2.42;;;;;;;5.46;80.11;100453.96;1716279;83;21056;-59
2023/04/07 04:06:30;;;;;;;3.12;2.42;;;;;;;5.41;80.07;100456.66;1654945;87;21523;-61
2023/04/07 04:09:01;;;;;;;4.17;2.72;;;;;;;5.35;80.11;100454.59;1654916;86;21054;-61
2023/04/07 04:11:31;;;;;;;3.77;2.20;;;;;;;5.30;80.27;100454.23;1655212;87;21074;-60
2023/04/07 04:14:05;;;;;;;3.08;2.30;;;;;;;5.25;80.45;100463.38;1600541;89;21067;-61
2023/04/07 04:16:36;;;;;;;2.72;2.05;;;;;;;5.21;80.44;100462.00;1597137;90;21059;-60
2023/04/07 04:19:07;;;;;;;2.10;1.90;;;;;;;5.19;80.51;100467.22;1596546;88;21035;-60
2023/04/07 04:21:38;;;;;;;2.45;1.95;;;;;;;5.18;80.42;100477.23;1597165;90;21145;-59
2023/04/07 04:24:08;;;;;;;2.47;1.90;;;;;;;5.16;80.37;100479.25;1597346;90;21083;-59
2023/04/07 04:26:38;;;;;;;4.78;2.40;;;;;;;5.14;80.29;100474.99;1596888;90;21551;-59
2023/04/07 04:29:09;;;;;;;2.42;1.98;;;;;;;5.11;80.40;100482.95;1596947;90;21063;-61
2023/04/07 04:31:40;;;;;;;3.15;2.25;;;;;;;5.09;80.28;100484.48;1662208;82;21129;-60
2023/04/07 04:34:11;;;;;;;3.65;2.40;;;;;;;5.08;80.03;100490.92;1725043;82;21002;-61
2023/04/07 04:36:44;;;;;;;5.92;2.20;;;;;;;5.04;80.22;100493.61;1735166;83;21073;-58
2023/04/07 04:39:13;;;;;;;2.95;2.00;;;;;;;5.06;80.41;100493.45;1736117;82;21714;-59
2023/04/07 04:41:44;;;;;;;3.75;2.30;;;;;;;5.08;80.48;100494.14;1736497;82;21506;-59
2023/04/07 04:44:13;;;;;;;4.67;2.20;;;;;;;5.07;80.41;100503.30;1736301;83;21054;-61
2023/04/07 04:46:44;;;;;;;4.22;2.50;;;;;;;5.08;80.60;100505.00;1736202;82;21029;-60
2023/04/07 04:49:14;;;;;;;2.83;2.10;;;;;;;5.08;80.52;100515.87;1737458;82;21005;-59
2023/04/07 04:51:45;;;;;;;4.35;2.65;;;;;;;5.11;80.59;100511.47;1738909;82;21041;-60
2023/04/07 04:54:17;;;;;;;4.12;2.47;;;;;;;5.13;80.54;100512.17;1738192;82;21084;-59
2023/04/07 04:56:47;;;;;;;3.95;2.47;;;;;;;5.15;80.53;100511.50;1738653;82;21017;-59
2023/04/07 04:59:18;;;;;;;3.20;2.90;;;;;;;5.18;80.52;100516.61;1738454;82;21081;-61
2023/04/07 05:01:55;;;;;;;3.50;2.50;;;;;;;5.19;80.38;100519.67;1738582;82;21045;-60
2023/04/07 05:04:25;;;;;;;5.42;2.85;;;;;;;5.19;80.31;100515.59;1738688;82;21017;-60
2023/04/07 05:06:56;;;;;;;4.50;3.30;;;;;;;5.22;80.43;100523.97;1737940;82;21025;-60
2023/04/07 05:09:28;;;;;;;4.08;2.95;;;;;;;5.26;80.40;100526.20;1746480;82;21072;-62
2023/04/07 05:11:59;;;;;;;5.72;2.80;;;;;;;5.27;80.32;100525.70;1739950;82;21057;-59
2023/04/07 05:14:31;;;;;;;4.12;2.75;;;;;;;5.28;79.80;100527.40;1738907;82;21073;-58
2023/04/07 05:17:03;;;;;;;3.33;2.62;;;;;;;5.27;79.70;100526.55;1738526;82;21575;-60
2023/04/07 05:19:33;;;;;;;3.52;2.67;;;;;;;5.26;79.63;100539.78;1738508;82;21065;-60
2023/04/07 05:22:05;;;;;;;4.50;3.00;;;;;;;5.25;79.38;100546.23;1738238;82;21021;-60
2023/04/07 05:24:38;;;;;;;5.03;3.05;;;;;;;5.24;79.36;100538.23;1698449;84;21095;-61
2023/04/07 05:27:07;;;;;;;4.28;2.67;;;;;;;5.30;79.65;100553.39;1700217;84;21032;-61
2023/04/07 05:29:36;;;;;;;4.28;2.87;;;;;;;5.35;79.65;100548.33;1701772;84;21047;-61
2023/04/07 05:32:07;;;;;;;4.15;2.95;;;;;;;5.43;79.37;100546.67;1701822;83;21475;-61
2023/04/07 05:34:38;;;;;;;4.15;3.00;;;;;;;5.45;79.09;100551.44;1701693;84;21043;-61
2023/04/07 05:37:08;;;;;;;5.65;2.90;;;;;;;5.47;79.08;100560.28;1701837;83;21040;-60
2023/04/07 05:39:39;;;;;;;12.28;3.62;;;;;;;5.52;79.19;100557.94;1701775;84;21084;-61
2023/04/07 05:42:09;;;;;;;3.47;2.77;;;;;;;5.55;79.18;100562.54;1709243;83;21005;-59
2023/04/07 05:44:41;;;;;;;7.55;3.90;;;;;;;5.60;79.04;100566.13;1735558;83;20998;-60
2023/04/07 05:47:11;;;;;;;10.48;3.40;;;;;;;5.63;78.92;100569.38;1737334;82;21068;-61
2023/04/07 05:49:46;;;;;;;10.65;3.90;;;;;;;5.64;79.00;100571.59;1740022;82;21065;-61
2023/04/07 05:52:15;;;;;;;3.92;2.70;;;;;;;5.67;78.84;100569.91;1745574;82;21088;-60
2023/04/07 05:54:47;;;;;;;3.95;3.10;;;;;;;5.68;78.43;100571.61;1743544;81;21033;-59
2023/04/07 05:57:17;;;;;;;4.55;3.15;;;;;;;5.69;78.29;100574.17;1720799;82;21469;-60
2023/04/07 05:59:48;;;;;;;6.58;3.67;;;;;;;5.72;78.32;100583.87;1742000;82;21430;-61
2023/04/07 06:02:18;;;;;;;9.15;3.58;;;;;;;5.73;78.10;100584.22;1741407;82;21105;-61
2023/04/07 06:04:48;;;;;;;6.75;3.67;;;;;;;5.77;78.26;100588.81;1741710;82;21049;-61
2023/04/07 06:07:19;;;;;;;10.58;3.70;;;;;;;5.77;78.11;100589.67;1741533;82;21045;-62
2023/04/07 06:09:48;;;;;;;5.83;3.15;;;;;;;5.81;78.12;100592.92;1741303;82;21511;-60
2023/04/07 06:12:17;;;;;;;6.55;3.05;;;;;;;5.83;78.06;100595.81;1741557;82;21016;-60
2023/04/07 06:14:51;;;;;;;6.90;3.17;;;;;;;5.87;78.18;100596.37;1741901;82;21029;-61
2023/04/07 06:17:24;;;;;;;6.37;3.60;;;;;;;5.90;77.94;100598.30;1722380;82;21474;-60
2023/04/07 06:19:53;;;;;;;7.25;3.17;;;;;;;5.92;77.58;100598.98;1741150;82;21105;-60
2023/04/07 06:22:22;;;;;;;5.40;3.15;;;;;;;5.96;77.88;100600.88;1740967;82;21024;-60
2023/04/07 06:24:53;;;;;;;7.35;3.40;;;;;;;6.03;77.70;100609.58;1741331;82;21029;-61
2023/04/07 06:27:22;;;;;;;6.12;3.20;;;;;;;6.09;77.49;100612.66;1741681;82;21013;-60
2023/04/07 06:29:51;;;;;;;13.08;3.62;;;;;;;6.11;76.92;100610.63;1720605;82;21267;-61
2023/04/07 06:32:21;;;;;;;4.37;3.20;;;;;;;6.13;76.62;100614.03;1740947;82;21009;-60
2023/04/07 06:34:51;;;;;;;6.40;3.37;;;;;;;6.16;76.52;100620.00;1741478;82;21056;-61
2023/04/07 06:37:24;;;;;;;4.17;3.30;;;;;;;6.16;76.00;100621.36;1742372;82;21487;-61
2023/04/07 06:39:54;;;;;;;10.05;4.15;;;;;;;6.16;75.87;100627.31;1741282;82;21060;-62
2023/04/07 06:42:24;;;;;;;7.25;3.45;;;;;;;6.19;75.97;100623.75;1740952;82;21025;-59
2023/04/07 06:44:56;;;;;;;4.80;3.58;;;;;;;6.25;76.22;100624.97;1740099;82;21478;-60
2023/04/07 06:47:25;;;;;;;8.73;3.83;;;;;;;6.28;75.81;100617.83;1742267;82;21021;-61
2023/04/07 06:49:56;;;;;;;10.85;3.83;;;;;;;6.32;75.80;100624.65;1740149;82;21029;-62
2023/04/07 06:52:25;;;;;;;5.75;3.35;;;;;;;6.35;75.26;100625.67;1738755;82;22531;-62
2023/04/07 06:54:55;;;;;;;8.45;3.60;;;;;;;6.43;75.42;100631.66;1738872;82;21021;-62
2023/04/07 06:57:25;;;;;;;12.05;3.80;;;;;;;6.51;75.52;100632.56;1738543;82;21073;-61
2023/04/07 06:59:55;;;;;;;6.53;4.17;;;;;;;6.55;75.19;100631.22;1738881;82;21049;-60
2023/04/07 07:02:25;;;;;;;6.47;3.87;;;;;;;6.60;74.54;100634.80;1738479;82;21072;-61
2023/04/07 07:04:55;;;;;;;7.53;3.70;;;;;;;6.65;74.23;100635.16;1738564;82;21088;-61
2023/04/07 07:07:24;;;;;;;4.15;2.92;;;;;;;6.68;74.09;100632.95;1738496;82;21021;-63
2023/04/07 07:09:53;;;;;;;4.40;3.00;;;;;;;6.74;74.07;100635.51;1738440;82;21079;-61
2023/04/07 07:12:23;;;;;;;4.75;3.10;;;;;;;6.81;73.84;100639.27;1738365;82;21465;-61
2023/04/07 07:14:53;;;;;;;5.47;3.20;;;;;;;6.86;73.31;100642.34;1738876;82;21021;-62
2023/04/07 07:17:22;;;;;;;4.97;2.80;;;;;;;6.89;72.97;100642.52;1738507;82;21033;-59
2023/04/07 07:19:53;;;;;;;6.53;3.25;;;;;;;6.94;73.30;100641.50;1738649;82;21018;-60
2023/04/07 07:22:22;;;;;;;6.03;3.67;;;;;;;6.99;73.19;100649.51;1738484;82;21010;-61
2023/04/07 07:24:53;;;;;;;5.20;3.65;;;;;;;7.06;72.97;100637.42;1738597;82;21021;-62
2023/04/07 07:27:23;;;;;;;7.92;4.10;;;;;;;7.14;73.11;100645.60;1738579;82;21033;-61
2023/04/07 07:29:52;;;;;;;6.53;3.58;;;;;;;7.24;72.89;100644.11;1738501;82;21469;-61
2023/04/07 07:32:21;;;;;;;4.42;2.90;;;;;;;7.29;72.41;100648.02;1738141;82;21469;-62
2023/04/07 07:34:50;;;;;;;7.55;3.33;;;;;;;7.35;72.37;100646.48;1738706;82;21061;-62
2023/04/07 07:37:19;;;;;;;4.45;3.27;;;;;;;7.41;72.34;100644.95;1738561;82;21061;-61
2023/04/07 07:39:48;;;;;;;9.15;3.90;;;;;;;7.50;72.77;100646.65;1738794;82;21072;-62
2023/04/07 07:42:18;;;;;;;9.68;4.00;;;;;;;7.59;71.72;100646.98;1738729;82;20990;-61
2023/04/07 07:44:48;;;;;;;7.50;4.10;;;;;;;7.66;71.46;100641.17;1738875;82;21001;-62
2023/04/07 07:47:17;;;;;;;5.12;3.22;;;;;;;7.78;71.75;100652.06;1738875;82;21076;-62
2023/04/07 07:49:46;;;;;;;8.33;4.22;;;;;;;7.86;71.28;100647.98;1738387;82;21501;-62
2023/04/07 07:52:16;;;;;;;8.33;4.47;;;;;;;7.99;71.29;100654.77;1738681;82;21037;-62
2023/04/07 07:54:46;;;;;;;5.10;3.62;;;;;;;8.22;70.71;100657.94;1737645;82;21067;-64
2023/04/07 07:57:15;;;;;;;4.90;3.62;;;;;;;8.42;68.91;100650.72;1722739;81;21047;-63
2023/04/07 07:59:45;;;;;;;10.85;5.92;;;;;;;8.62;68.37;100645.70;1739999;82;21016;-62
2023/04/07 08:02:14;;;;;;;7.20;4.40;;;;;;;8.89;68.13;100654.23;1728253;82;21099;-64
2023/04/07 08:04:44;;;;;;;5.62;3.20;;;;;;;9.30;68.58;100649.02;1716852;83;21071;-64
2023/04/07 08:07:13;;;;;;;7.50;3.40;;;;;;;9.76;66.71;100645.72;1731425;82;21043;-67
2023/04/07 08:09:42;;;;;;;6.70;3.05;;;;;;;10.15;67.60;100649.56;1736320;82;21128;-67
2023/04/07 08:12:12;;;;;;;3.77;3.05;;;;;;;10.64;70.84;100648.49;1738196;82;21040;-67
2023/04/07 08:14:41;;;;;;;5.58;4.03;;;;;;;11.15;62.91;100651.72;1728716;82;21534;-66
2023/04/07 08:17:11;;;;;;;7.47;3.85;;;;;;;11.39;64.19;100654.07;1716886;83;21118;-64
2023/04/07 08:19:42;;;;;;;4.87;3.40;;;;;;;11.81;64.72;100657.86;1716805;83;21044;-65
2023/04/07 08:22:12;;;;;;;3.87;3.17;;;;;;;12.21;63.91;100648.84;1716755;83;21063;-68
2023/04/07 08:24:41;;;;;;;8.10;4.37;;;;;;;12.60;62.02;100653.72;1717029;83;21529;-66
2023/04/07 08:27:10;;;;;;;4.42;3.30;;;;;;;12.92;60.42;100648.55;1716772;83;21513;-66
2023/04/07 08:29:41;;;;;;;4.28;3.55;;;;;;;13.24;58.86;100645.62;1661135;86;21111;-65
2023/04/07 08:32:10;;;;;;;4.78;3.62;;;;;;;13.45;56.40;100645.43;1684729;84;21071;-68
2023/04/07 08:34:41;;;;;;;4.05;3.40;;;;;;;13.59;56.75;100644.91;1699086;84;21121;-67
2023/04/07 08:37:11;;;;;;;7.12;4.00;;;;;;;13.58;52.51;100650.09;1698908;84;21442;-66
2023/04/07 08:39:40;;;;;;;7.12;4.00;;;;;;;13.38;51.69;100650.08;1699204;84;21635;-67
2023/04/07 08:42:10;;;;;;;7.17;5.30;;;;;;;13.20;53.45;100650.69;1698931;84;21039;-66
2023/04/07 08:44:40;;;;;;;5.97;4.37;;;;;;;13.33;54.96;100648.49;1680990;84;21424;-62
2023/04/07 08:47:10;;;;;;;7.42;3.87;;;;;;;13.46;54.21;100644.37;1698784;84;21095;-65
2023/04/07 08:49:39;;;;;;;5.70;3.98;;;;;;;13.54;53.81;100646.07;1699594;84;21206;-63
2023/04/07 08:52:11;;;;;;;6.03;3.67;;;;;;;13.72;53.26;100651.83;1701300;84;21166;-63
2023/04/07 08:54:40;;;;;;;7.83;4.15;;;;;;;13.82;52.27;100656.91;1728292;81;21081;-65
2023/04/07 08:57:10;;;;;;;5.00;3.80;;;;;;;13.81;52.15;100656.06;1742661;82;21067;-64
2023/04/07 08:59:43;;;;;;;4.37;3.77;;;;;;;13.82;52.20;100648.64;1743005;81;21079;-64
2023/04/07 09:02:12;;;;;;;4.42;3.65;;;;;;;13.77;51.87;100655.32;1741951;81;20985;-66
2023/04/07 09:04:44;;;;;;;5.95;3.95;;;;;;;13.64;51.55;100656.98;1741465;82;21064;-64
2023/04/07 09:07:14;;;;;;;6.55;4.67;;;;;;;13.55;51.55;100648.62;1713146;82;21744;-63
2023/04/07 09:09:44;;;;;;;8.90;5.05;;;;;;;13.35;50.43;100656.01;1738690;81;21068;-64
2023/04/07 09:12:13;;;;;;;4.85;3.95;;;;;;;13.22;50.71;100654.08;1737993;82;21455;-64
2023/04/07 09:14:43;;;;;;;7.58;4.60;;;;;;;13.08;49.77;100650.11;1738298;82;21051;-63
2023/04/07 09:17:14;;;;;;;6.47;4.40;;;;;;;12.87;51.36;100646.42;1739276;82;21091;-63
2023/04/07 09:19:43;;;;;;;6.35;4.90;;;;;;;12.78;52.74;100644.91;1738862;82;21047;-64
2023/04/07 09:22:13;;;;;;;6.55;4.85;;;;;;;12.74;53.05;100647.75;1719200;82;21059;-64
2023/04/07 09:24:44;;;;;;;6.75;4.45;;;;;;;12.68;52.90;100652.70;1745404;82;21540;-64
2023/04/07 09:27:18;;;;;;;5.22;4.03;;;;;;;12.63;52.57;100654.69;1741451;82;21035;-66
2023/04/07 09:29:49;;;;;;;6.78;4.75;;;;;;;12.57;52.19;100644.52;1741448;82;21027;-65
2023/04/07 09:32:38;;;;;;;7.10;4.62;;;;;;;12.55;52.90;100649.89;1739807;82;21067;-64
2023/04/07 09:35:08;;;;;;;8.00;5.30;;;;;;;12.51;53.22;100656.85;1738779;82;21032;-65
2023/04/07 09:37:37;;;;;;;10.48;5.00;;;;;;;12.36;52.05;100649.59;1738139;81;21538;-64
2023/04/07 09:40:07;;;;;;;6.53;5.00;;;;;;;12.24;52.05;100653.08;1738562;82;21078;-70
2023/04/07 09:42:47;;;;;;;5.50;4.60;;;;;;;12.12;52.67;100651.95;1738280;81;21043;-67
2023/04/07 09:45:26;;;;;;;8.53;5.10;;;;;;;12.05;52.94;100644.52;1738217;81;21007;-65
2023/04/07 09:47:58;;;;;;;7.08;4.50;;;;;;;12.07;53.57;100649.81;1725442;82;21034;-64
2023/04/07 09:50:36;;;;;;;6.70;5.05;;;;;;;12.11;53.63;100646.98;1740368;82;21138;-63
2023/04/07 09:53:08;;;;;;;9.00;5.35;;;;;;;12.06;53.07;100644.00;1742490;82;21075;-65
2023/04/07 09:55:39;;;;;;;9.65;5.15;;;;;;;12.01;53.88;100649.25;1742208;82;21026;-65
2023/04/07 09:58:08;;;;;;;6.22;4.10;;;;;;;12.02;54.35;100644.92;1718265;82;21078;-66
2023/04/07 10:00:38;;;;;;;8.45;4.17;;;;;;;12.07;53.38;100642.95;1718659;82;21079;-66
2023/04/07 10:03:08;;;;;;;6.47;4.30;;;;;;;12.18;53.74;100645.12;1718391;82;21015;-64
2023/04/07 10:28:02;;;;;;;6.72;4.70;;;;;;;12.14;51.83;100647.95;1683569;79;20226;-61
2023/04/07 10:30:32;;;;;;;5.05;4.28;;;;;;;12.12;51.43;100657.45;1743590;81;21000;-58
2023/04/07 10:33:04;;;;;;;6.10;4.60;;;;;;;12.07;51.28;100652.56;1739970;82;21032;-59
2023/04/07 10:36:04;;;;;;;10.25;7.60;;;;;;;11.98;51.82;100653.77;1740118;82;21083;-55
2023/04/07 10:38:34;;;;;;;7.65;5.33;;;;;;;11.95;52.27;100656.91;1740057;82;21059;-60
2023/04/07 10:41:39;;;;;;;9.73;5.47;;;;;;;11.96;52.64;100651.75;1740317;81;21015;-59
2023/04/07 10:44:10;;;;;;;6.62;4.95;;;;;;;12.08;52.64;100649.29;1724026;82;21442;-58
2023/04/07 10:46:54;;;;;;;7.45;4.62;;;;;;;12.27;52.66;100650.78;1680443;85;21015;-59
2023/04/07 10:49:23;;;;;;;6.10;4.70;;;;;;;12.40;52.30;100650.03;1664063;85;21067;-61
2023/04/07 10:52:15;;;;;;;6.67;4.95;;;;;;;12.45;52.28;100650.27;1663668;85;21102;-59
2023/04/07 10:54:45;;;;;;;8.53;5.53;;;;;;;12.50;52.90;100646.91;1666385;86;21300;-58
2023/04/07 10:57:15;;;;;;;9.83;4.45;;;;;;;12.60;52.27;100650.13;1670314;85;21112;-58
2023/04/07 11:00:12;;;;;;;10.78;6.22;;;;;;;12.64;52.35;100650.89;1676485;85;21079;-58
2023/04/07 11:02:43;;;;;;;8.68;6.50;;;;;;;12.67;52.25;100653.75;1676587;85;21011;-58
2023/04/07 11:05:24;;;;;;;8.40;6.30;;;;;;;12.71;52.63;100653.66;1718041;82;21056;-59
2023/04/07 11:07:56;;;;;;;8.53;6.20;;;;;;;12.73;52.50;100651.55;1740129;82;21467;-58
2023/04/07 11:10:27;;;;;;;10.00;6.08;;;;;;;12.68;51.74;100657.67;1739897;82;21075;-58
2023/04/07 11:13:04;;;;;;;7.87;5.85;;;;;;;12.60;51.39;100655.62;1739929;82;21072;-57
2023/04/07 11:15:36;;;;;;;9.88;6.85;;;;;;;12.51;51.94;100649.98;1741834;82;21055;-59
2023/04/07 11:18:17;;;;;;;8.63;6.20;;;;;;;12.42;51.35;100651.20;1742378;81;21063;-59
2023/04/07 11:20:57;;;;;;;12.95;8.20;;;;;;;12.30;51.77;100646.25;1742441;82;21051;-59
2023/04/07 11:23:28;;;;;;;8.78;6.22;;;;;;;12.25;52.59;100649.28;1742662;82;21047;-58
2023/04/07 11:26:01;;;;;;;8.18;6.03;;;;;;;12.22;51.80;100642.30;1742257;82;21079;-58
2023/04/07 11:28:30;;;;;;;10.35;6.65;;;;;;;12.22;51.95;100644.20;1741966;82;21079;-58
2023/04/07 11:31:01;;;;;;;9.63;5.92;;;;;;;12.24;52.54;100645.69;1739875;82;21063;-58
2023/04/07 11:33:31;;;;;;;8.65;5.70;;;;;;;12.26;53.04;100647.70;1739830;82;21175;-58
2023/04/07 11:36:01;;;;;;;9.45;6.00;;;;;;;12.28;52.24;100651.10;1740061;82;21463;-57
2023/04/07 11:38:38;;;;;;;9.25;6.25;;;;;;;12.24;52.15;100648.44;1740012;82;21067;-57
2023/04/07 11:41:13;;;;;;;10.08;6.65;;;;;;;12.20;52.09;100642.17;1740430;82;21071;-58
2023/04/07 11:43:42;;;;;;;8.85;5.80;;;;;;;12.15;51.82;100648.28;1739924;82;21107;-60
2023/04/07 11:46:16;;;;;;;8.60;5.62;;;;;;;12.13;52.52;100647.63;1739908;82;21103;-58
2023/04/07 11:48:47;;;;;;;8.05;5.90;;;;;;;12.08;52.04;100646.02;1732278;82;21093;-57
2023/04/07 11:51:18;;;;;;;9.80;6.67;;;;;;;12.06;53.02;100644.00;1724453;82;21506;-57
2023/04/07 11:53:47;;;;;;;9.58;6.53;;;;;;;12.06;52.93;100646.22;1724636;83;21443;-57
2023/04/07 11:56:17;;;;;;;10.90;6.67;;;;;;;12.06;51.75;100644.84;1714189;82;21580;-58
2023/04/07 11:58:52;;;;;;;12.50;7.12;;;;;;;12.10;51.67;100641.70;1724618;83;21052;-58
2023/04/07 12:01:23;;;;;;;8.65;6.05;;;;;;;12.15;51.23;100637.81;1724582;83;21076;-57
2023/04/07 12:03:58;;;;;;;9.38;6.22;;;;;;;12.20;50.79;100640.28;1724761;83;21061;-58
2023/04/07 12:06:40;;;;;;;12.53;7.20;;;;;;;12.19;50.21;100639.11;1724425;82;21727;-58
2023/04/07 12:09:31;;;;;;;12.03;7.08;;;;;;;12.16;50.99;100636.77;1724607;83;21017;-60
2023/04/07 12:12:07;;;;;;;17.90;8.85;;;;;;;12.15;51.09;100631.80;1724697;83;21068;-60
2023/04/07 12:14:41;;;;;;;10.10;6.70;;;;;;;12.20;51.34;100637.53;1724441;82;21223;-59